sensor_id;sensor_type;location;lat;lon;timestamp;P1;durP1;ratioP1;P2;durP2;ratioP2
5285;SDS011;2665;53.112;7.358;2023-01-25T00:01:11;14.83;;;8.13;;
5285;SDS011;2665;53.112;7.358;2023-01-25T00:03:37;15.37;;;7.67;;
5285;SDS011;2665;53.112;7.358;2023-01-25T00:06:03;13.33;;;7.10;;
5285;SDS011;2665;53.112;7.358;2023-01-25T00:08:30;15.27;;;6.97;;
5285;SDS011;2665;53.112;7.358;2023-01-25T00:10:56;14.73;;;7.37;;
5285;SDS011;2665;53.112;7.358;2023-01-25T00:13:22;13.87;;;8.07;;
5285;SDS011;2665;53.112;7.358;2023-01-25T00:15:48;13.83;;;7.47;;
5285;SDS011;2665;53.112;7.358;2023-01-25T00:18:14;15.67;;;8.40;;
5285;SDS011;2665;53.112;7.358;2023-01-25T00:20:40;15.43;;;7.57;;
5285;SDS011;2665;53.112;7.358;2023-01-25T00:23:06;13.73;;;6.77;;
5285;SDS011;2665;53.112;7.358;2023-01-25T00:25:32;14.67;;;7.60;;
5285;SDS011;2665;53.112;7.358;2023-01-25T00:27:58;14.30;;;7.10;;
5285;SDS011;2665;53.112;7.358;2023-01-25T00:30:24;13.50;;;7.70;;
5285;SDS011;2665;53.112;7.358;2023-01-25T00:32:57;17.20;;;8.20;;
5285;SDS011;2665;53.112;7.358;2023-01-25T00:35:30;14.30;;;7.60;;
5285;SDS011;2665;53.112;7.358;2023-01-25T00:37:56;11.23;;;6.53;;
5285;SDS011;2665;53.112;7.358;2023-01-25T00:40:25;13.67;;;7.60;;
5285;SDS011;2665;53.112;7.358;2023-01-25T00:42:51;16.17;;;8.13;;
5285;SDS011;2665;53.112;7.358;2023-01-25T00:45:17;12.07;;;6.17;;
5285;SDS011;2665;53.112;7.358;2023-01-25T00:47:43;10.00;;;5.90;;
5285;SDS011;2665;53.112;7.358;2023-01-25T00:50:10;13.53;;;6.70;;
5285;SDS011;2665;53.112;7.358;2023-01-25T00:52:36;13.10;;;7.87;;
5285;SDS011;2665;53.112;7.358;2023-01-25T00:55:02;14.07;;;7.73;;
5285;SDS011;2665;53.112;7.358;2023-01-25T00:57:28;14.57;;;7.97;;
5285;SDS011;2665;53.112;7.358;2023-01-25T00:59:54;20.40;;;10.20;;
5285;SDS011;2665;53.112;7.358;2023-01-25T01:02:20;17.47;;;9.43;;
5285;SDS011;2665;53.112;7.358;2023-01-25T01:04:46;13.80;;;8.33;;
5285;SDS011;2665;53.112;7.358;2023-01-25T01:07:13;21.83;;;10.17;;
5285;SDS011;2665;53.112;7.358;2023-01-25T01:09:39;15.13;;;8.63;;
5285;SDS011;2665;53.112;7.358;2023-01-25T01:12:05;15.53;;;8.40;;
5285;SDS011;2665;53.112;7.358;2023-01-25T01:14:31;15.03;;;8.73;;
5285;SDS011;2665;53.112;7.358;2023-01-25T01:16:57;21.80;;;10.37;;
5285;SDS011;2665;53.112;7.358;2023-01-25T01:19:23;16.33;;;8.47;;
5285;SDS011;2665;53.112;7.358;2023-01-25T01:21:49;18.80;;;10.50;;
5285;SDS011;2665;53.112;7.358;2023-01-25T01:24:15;20.80;;;10.50;;
5285;SDS011;2665;53.112;7.358;2023-01-25T01:26:42;19.23;;;10.63;;
5285;SDS011;2665;53.112;7.358;2023-01-25T01:29:08;18.20;;;10.00;;
5285;SDS011;2665;53.112;7.358;2023-01-25T01:31:34;15.20;;;8.83;;
5285;SDS011;2665;53.112;7.358;2023-01-25T01:34:00;16.77;;;11.10;;
5285;SDS011;2665;53.112;7.358;2023-01-25T01:36:26;20.83;;;10.70;;
5285;SDS011;2665;53.112;7.358;2023-01-25T01:38:53;18.03;;;11.60;;
5285;SDS011;2665;53.112;7.358;2023-01-25T01:41:19;18.40;;;9.67;;
5285;SDS011;2665;53.112;7.358;2023-01-25T01:43:46;16.03;;;8.73;;
5285;SDS011;2665;53.112;7.358;2023-01-25T01:46:13;18.00;;;9.00;;
5285;SDS011;2665;53.112;7.358;2023-01-25T01:48:43;19.40;;;10.93;;
5285;SDS011;2665;53.112;7.358;2023-01-25T01:51:13;18.47;;;9.80;;
5285;SDS011;2665;53.112;7.358;2023-01-25T01:53:40;17.27;;;9.07;;
5285;SDS011;2665;53.112;7.358;2023-01-25T01:56:08;19.00;;;11.97;;
5285;SDS011;2665;53.112;7.358;2023-01-25T01:58:35;15.20;;;9.47;;
5285;SDS011;2665;53.112;7.358;2023-01-25T02:01:02;16.80;;;9.37;;
5285;SDS011;2665;53.112;7.358;2023-01-25T02:03:28;13.40;;;8.37;;
5285;SDS011;2665;53.112;7.358;2023-01-25T02:05:56;16.07;;;9.17;;
5285;SDS011;2665;53.112;7.358;2023-01-25T02:08:25;23.73;;;11.20;;
5285;SDS011;2665;53.112;7.358;2023-01-25T02:10:52;22.23;;;12.27;;
5285;SDS011;2665;53.112;7.358;2023-01-25T02:13:18;22.50;;;10.57;;
5285;SDS011;2665;53.112;7.358;2023-01-25T02:15:46;19.60;;;11.27;;
5285;SDS011;2665;53.112;7.358;2023-01-25T02:18:12;16.97;;;9.53;;
5285;SDS011;2665;53.112;7.358;2023-01-25T02:20:39;19.50;;;10.20;;
5285;SDS011;2665;53.112;7.358;2023-01-25T02:25:51;21.80;;;12.50;;
5285;SDS011;2665;53.112;7.358;2023-01-25T02:30:53;17.10;;;8.93;;
5285;SDS011;2665;53.112;7.358;2023-01-25T02:33:21;19.47;;;9.90;;
5285;SDS011;2665;53.112;7.358;2023-01-25T02:35:48;20.33;;;11.00;;
5285;SDS011;2665;53.112;7.358;2023-01-25T02:38:18;19.47;;;10.53;;
5285;SDS011;2665;53.112;7.358;2023-01-25T02:43:12;19.27;;;9.87;;
5285;SDS011;2665;53.112;7.358;2023-01-25T02:45:38;18.10;;;10.60;;
5285;SDS011;2665;53.112;7.358;2023-01-25T02:48:04;19.93;;;11.53;;
5285;SDS011;2665;53.112;7.358;2023-01-25T02:50:30;17.13;;;9.23;;
5285;SDS011;2665;53.112;7.358;2023-01-25T02:52:56;17.40;;;9.77;;
5285;SDS011;2665;53.112;7.358;2023-01-25T02:55:22;18.90;;;10.67;;
5285;SDS011;2665;53.112;7.358;2023-01-25T02:57:48;16.60;;;10.37;;
5285;SDS011;2665;53.112;7.358;2023-01-25T03:00:14;15.13;;;9.87;;
5285;SDS011;2665;53.112;7.358;2023-01-25T03:02:40;20.87;;;11.00;;
5285;SDS011;2665;53.112;7.358;2023-01-25T03:05:06;12.70;;;7.70;;
5285;SDS011;2665;53.112;7.358;2023-01-25T03:07:33;16.30;;;9.70;;
5285;SDS011;2665;53.112;7.358;2023-01-25T03:09:59;18.17;;;11.30;;
5285;SDS011;2665;53.112;7.358;2023-01-25T03:12:25;17.87;;;10.47;;
5285;SDS011;2665;53.112;7.358;2023-01-25T03:14:51;18.10;;;10.00;;
5285;SDS011;2665;53.112;7.358;2023-01-25T03:17:17;16.93;;;10.03;;
5285;SDS011;2665;53.112;7.358;2023-01-25T03:19:43;18.40;;;11.10;;
5285;SDS011;2665;53.112;7.358;2023-01-25T03:22:09;15.23;;;10.27;;
5285;SDS011;2665;53.112;7.358;2023-01-25T03:24:35;20.90;;;12.00;;
5285;SDS011;2665;53.112;7.358;2023-01-25T03:27:01;23.17;;;11.60;;
5285;SDS011;2665;53.112;7.358;2023-01-25T03:29:38;20.00;;;11.97;;
5285;SDS011;2665;53.112;7.358;2023-01-25T03:32:04;18.67;;;10.67;;
5285;SDS011;2665;53.112;7.358;2023-01-25T03:34:30;22.37;;;11.80;;
5285;SDS011;2665;53.112;7.358;2023-01-25T03:36:56;16.80;;;9.83;;
5285;SDS011;2665;53.112;7.358;2023-01-25T03:39:22;14.50;;;8.70;;
5285;SDS011;2665;53.112;7.358;2023-01-25T03:41:48;20.53;;;10.57;;
5285;SDS011;2665;53.112;7.358;2023-01-25T03:44:14;20.63;;;10.73;;
5285;SDS011;2665;53.112;7.358;2023-01-25T03:46:40;24.60;;;12.57;;
5285;SDS011;2665;53.112;7.358;2023-01-25T03:49:06;22.80;;;12.10;;
5285;SDS011;2665;53.112;7.358;2023-01-25T03:51:32;20.83;;;9.93;;
5285;SDS011;2665;53.112;7.358;2023-01-25T03:53:59;23.50;;;11.40;;
5285;SDS011;2665;53.112;7.358;2023-01-25T03:56:25;19.70;;;10.70;;
5285;SDS011;2665;53.112;7.358;2023-01-25T03:58:51;24.20;;;11.80;;
5285;SDS011;2665;53.112;7.358;2023-01-25T04:01:17;21.87;;;12.33;;
5285;SDS011;2665;53.112;7.358;2023-01-25T04:03:43;21.27;;;11.03;;
5285;SDS011;2665;53.112;7.358;2023-01-25T04:06:09;19.37;;;10.47;;
5285;SDS011;2665;53.112;7.358;2023-01-25T04:08:35;19.03;;;10.20;;
5285;SDS011;2665;53.112;7.358;2023-01-25T04:11:03;20.33;;;11.20;;
5285;SDS011;2665;53.112;7.358;2023-01-25T04:13:29;19.40;;;11.77;;
5285;SDS011;2665;53.112;7.358;2023-01-25T04:15:55;21.90;;;12.60;;
5285;SDS011;2665;53.112;7.358;2023-01-25T04:18:21;22.17;;;11.97;;
5285;SDS011;2665;53.112;7.358;2023-01-25T04:20:51;20.37;;;11.07;;
5285;SDS011;2665;53.112;7.358;2023-01-25T04:23:17;23.00;;;13.00;;
5285;SDS011;2665;53.112;7.358;2023-01-25T04:25:51;19.67;;;11.87;;
5285;SDS011;2665;53.112;7.358;2023-01-25T04:28:17;20.13;;;10.90;;
5285;SDS011;2665;53.112;7.358;2023-01-25T04:30:43;17.03;;;10.67;;
5285;SDS011;2665;53.112;7.358;2023-01-25T04:33:09;16.87;;;9.40;;
5285;SDS011;2665;53.112;7.358;2023-01-25T04:35:36;21.67;;;12.00;;
5285;SDS011;2665;53.112;7.358;2023-01-25T04:38:02;21.87;;;11.73;;
5285;SDS011;2665;53.112;7.358;2023-01-25T04:40:29;20.03;;;12.33;;
5285;SDS011;2665;53.112;7.358;2023-01-25T04:42:55;18.63;;;9.20;;
5285;SDS011;2665;53.112;7.358;2023-01-25T04:45:22;17.80;;;10.07;;
5285;SDS011;2665;53.112;7.358;2023-01-25T04:47:48;15.53;;;10.17;;
5285;SDS011;2665;53.112;7.358;2023-01-25T04:50:15;17.77;;;10.00;;
5285;SDS011;2665;53.112;7.358;2023-01-25T04:52:41;19.40;;;12.23;;
5285;SDS011;2665;53.112;7.358;2023-01-25T04:55:07;19.13;;;10.07;;
5285;SDS011;2665;53.112;7.358;2023-01-25T04:57:33;18.13;;;10.33;;
5285;SDS011;2665;53.112;7.358;2023-01-25T04:59:59;18.90;;;9.40;;
5285;SDS011;2665;53.112;7.358;2023-01-25T05:02:25;19.40;;;10.70;;
5285;SDS011;2665;53.112;7.358;2023-01-25T05:04:51;18.90;;;9.80;;
5285;SDS011;2665;53.112;7.358;2023-01-25T05:07:17;19.77;;;9.90;;
5285;SDS011;2665;53.112;7.358;2023-01-25T05:09:43;21.10;;;11.10;;
5285;SDS011;2665;53.112;7.358;2023-01-25T05:12:09;16.80;;;9.77;;
5285;SDS011;2665;53.112;7.358;2023-01-25T05:14:38;18.20;;;11.37;;
5285;SDS011;2665;53.112;7.358;2023-01-25T05:17:06;23.17;;;11.60;;
5285;SDS011;2665;53.112;7.358;2023-01-25T05:19:32;21.47;;;10.27;;
5285;SDS011;2665;53.112;7.358;2023-01-25T05:21:59;19.47;;;11.80;;
5285;SDS011;2665;53.112;7.358;2023-01-25T05:24:25;20.93;;;10.93;;
5285;SDS011;2665;53.112;7.358;2023-01-25T05:26:51;21.37;;;10.97;;
5285;SDS011;2665;53.112;7.358;2023-01-25T05:29:33;21.93;;;11.50;;
5285;SDS011;2665;53.112;7.358;2023-01-25T05:32:06;19.77;;;10.33;;
5285;SDS011;2665;53.112;7.358;2023-01-25T05:34:33;18.37;;;10.13;;
5285;SDS011;2665;53.112;7.358;2023-01-25T05:36:59;13.53;;;8.07;;
5285;SDS011;2665;53.112;7.358;2023-01-25T05:39:25;21.00;;;10.67;;
5285;SDS011;2665;53.112;7.358;2023-01-25T05:41:51;18.97;;;9.70;;
5285;SDS011;2665;53.112;7.358;2023-01-25T05:44:17;22.47;;;11.27;;
5285;SDS011;2665;53.112;7.358;2023-01-25T05:46:43;17.20;;;8.83;;
5285;SDS011;2665;53.112;7.358;2023-01-25T05:49:10;18.83;;;10.50;;
5285;SDS011;2665;53.112;7.358;2023-01-25T05:51:36;18.93;;;10.57;;
5285;SDS011;2665;53.112;7.358;2023-01-25T05:54:03;17.73;;;10.50;;
5285;SDS011;2665;53.112;7.358;2023-01-25T05:56:29;17.57;;;9.50;;
5285;SDS011;2665;53.112;7.358;2023-01-25T05:58:56;17.37;;;10.40;;
5285;SDS011;2665;53.112;7.358;2023-01-25T06:01:23;18.37;;;10.43;;
5285;SDS011;2665;53.112;7.358;2023-01-25T06:03:49;21.63;;;10.20;;
5285;SDS011;2665;53.112;7.358;2023-01-25T06:06:15;23.70;;;9.23;;
5285;SDS011;2665;53.112;7.358;2023-01-25T06:08:41;17.70;;;9.07;;
5285;SDS011;2665;53.112;7.358;2023-01-25T06:11:08;20.73;;;10.27;;
5285;SDS011;2665;53.112;7.358;2023-01-25T06:13:34;23.43;;;10.70;;
5285;SDS011;2665;53.112;7.358;2023-01-25T06:16:00;16.73;;;9.13;;
5285;SDS011;2665;53.112;7.358;2023-01-25T06:18:28;17.57;;;9.90;;
5285;SDS011;2665;53.112;7.358;2023-01-25T06:20:57;16.57;;;9.53;;
5285;SDS011;2665;53.112;7.358;2023-01-25T06:23:24;16.30;;;10.00;;
5285;SDS011;2665;53.112;7.358;2023-01-25T06:25:50;23.20;;;12.33;;
5285;SDS011;2665;53.112;7.358;2023-01-25T06:28:17;20.33;;;11.23;;
5285;SDS011;2665;53.112;7.358;2023-01-25T06:30:44;19.67;;;10.97;;
5285;SDS011;2665;53.112;7.358;2023-01-25T06:33:10;17.27;;;10.23;;
5285;SDS011;2665;53.112;7.358;2023-01-25T06:35:36;17.37;;;10.00;;
5285;SDS011;2665;53.112;7.358;2023-01-25T06:38:04;22.47;;;11.20;;
5285;SDS011;2665;53.112;7.358;2023-01-25T06:40:30;15.63;;;9.10;;
5285;SDS011;2665;53.112;7.358;2023-01-25T06:43:30;16.77;;;9.17;;
5285;SDS011;2665;53.112;7.358;2023-01-25T06:45:48;19.33;;;10.57;;
5285;SDS011;2665;53.112;7.358;2023-01-25T06:48:14;20.80;;;10.80;;
5285;SDS011;2665;53.112;7.358;2023-01-25T06:50:41;20.53;;;10.80;;
5285;SDS011;2665;53.112;7.358;2023-01-25T06:53:07;25.47;;;11.67;;
5285;SDS011;2665;53.112;7.358;2023-01-25T06:55:33;19.50;;;9.73;;
5285;SDS011;2665;53.112;7.358;2023-01-25T06:57:59;18.77;;;9.83;;
5285;SDS011;2665;53.112;7.358;2023-01-25T07:00:25;15.27;;;8.10;;
5285;SDS011;2665;53.112;7.358;2023-01-25T07:02:51;15.60;;;8.80;;
5285;SDS011;2665;53.112;7.358;2023-01-25T07:05:17;13.47;;;8.03;;
5285;SDS011;2665;53.112;7.358;2023-01-25T07:07:44;15.60;;;7.70;;
5285;SDS011;2665;53.112;7.358;2023-01-25T07:10:10;10.10;;;6.70;;
5285;SDS011;2665;53.112;7.358;2023-01-25T07:12:36;14.40;;;9.07;;
5285;SDS011;2665;53.112;7.358;2023-01-25T07:15:02;20.53;;;9.97;;
5285;SDS011;2665;53.112;7.358;2023-01-25T07:17:28;20.67;;;11.93;;
5285;SDS011;2665;53.112;7.358;2023-01-25T07:19:55;22.23;;;12.40;;
5285;SDS011;2665;53.112;7.358;2023-01-25T07:22:21;20.67;;;10.60;;
5285;SDS011;2665;53.112;7.358;2023-01-25T07:24:48;24.17;;;11.87;;
5285;SDS011;2665;53.112;7.358;2023-01-25T07:27:16;19.30;;;10.27;;
5285;SDS011;2665;53.112;7.358;2023-01-25T07:29:42;15.23;;;8.37;;
5285;SDS011;2665;53.112;7.358;2023-01-25T07:32:08;25.47;;;14.20;;
5285;SDS011;2665;53.112;7.358;2023-01-25T07:34:36;18.30;;;11.00;;
5285;SDS011;2665;53.112;7.358;2023-01-25T07:37:03;24.47;;;13.17;;
5285;SDS011;2665;53.112;7.358;2023-01-25T07:39:29;22.23;;;12.10;;
5285;SDS011;2665;53.112;7.358;2023-01-25T07:41:55;21.97;;;12.20;;
5285;SDS011;2665;53.112;7.358;2023-01-25T07:44:21;25.47;;;12.10;;
5285;SDS011;2665;53.112;7.358;2023-01-25T07:46:47;23.13;;;12.27;;
5285;SDS011;2665;53.112;7.358;2023-01-25T07:49:13;29.40;;;13.57;;
5285;SDS011;2665;53.112;7.358;2023-01-25T07:51:39;22.97;;;12.00;;
5285;SDS011;2665;53.112;7.358;2023-01-25T07:54:05;27.50;;;13.00;;
5285;SDS011;2665;53.112;7.358;2023-01-25T07:56:32;28.53;;;13.43;;
5285;SDS011;2665;53.112;7.358;2023-01-25T07:58:59;25.63;;;11.80;;
5285;SDS011;2665;53.112;7.358;2023-01-25T08:01:27;28.47;;;14.27;;
5285;SDS011;2665;53.112;7.358;2023-01-25T08:03:54;27.97;;;13.77;;
5285;SDS011;2665;53.112;7.358;2023-01-25T08:06:25;27.07;;;13.00;;
5285;SDS011;2665;53.112;7.358;2023-01-25T08:08:54;29.30;;;13.53;;
5285;SDS011;2665;53.112;7.358;2023-01-25T08:11:22;26.90;;;13.83;;
5285;SDS011;2665;53.112;7.358;2023-01-25T08:13:48;25.53;;;14.43;;
5285;SDS011;2665;53.112;7.358;2023-01-25T08:16:18;23.57;;;11.23;;
5285;SDS011;2665;53.112;7.358;2023-01-25T08:18:48;27.67;;;14.00;;
5285;SDS011;2665;53.112;7.358;2023-01-25T08:21:14;21.93;;;12.47;;
5285;SDS011;2665;53.112;7.358;2023-01-25T08:23:40;27.90;;;12.37;;
5285;SDS011;2665;53.112;7.358;2023-01-25T08:26:07;23.50;;;12.03;;
5285;SDS011;2665;53.112;7.358;2023-01-25T08:28:34;30.33;;;15.50;;
5285;SDS011;2665;53.112;7.358;2023-01-25T08:31:42;31.40;;;13.80;;
5285;SDS011;2665;53.112;7.358;2023-01-25T08:33:49;27.47;;;14.03;;
5285;SDS011;2665;53.112;7.358;2023-01-25T08:36:15;29.50;;;13.80;;
5285;SDS011;2665;53.112;7.358;2023-01-25T08:38:42;28.97;;;12.37;;
5285;SDS011;2665;53.112;7.358;2023-01-25T08:41:09;23.73;;;13.53;;
5285;SDS011;2665;53.112;7.358;2023-01-25T08:43:35;28.47;;;13.20;;
5285;SDS011;2665;53.112;7.358;2023-01-25T08:46:02;34.27;;;16.23;;
5285;SDS011;2665;53.112;7.358;2023-01-25T08:48:28;25.87;;;13.37;;
5285;SDS011;2665;53.112;7.358;2023-01-25T08:50:54;26.27;;;13.13;;
5285;SDS011;2665;53.112;7.358;2023-01-25T08:53:20;33.37;;;14.70;;
5285;SDS011;2665;53.112;7.358;2023-01-25T08:55:46;30.80;;;14.00;;
5285;SDS011;2665;53.112;7.358;2023-01-25T08:58:12;24.27;;;12.77;;
5285;SDS011;2665;53.112;7.358;2023-01-25T09:00:40;31.80;;;12.00;;
5285;SDS011;2665;53.112;7.358;2023-01-25T09:03:06;26.43;;;14.00;;
5285;SDS011;2665;53.112;7.358;2023-01-25T09:05:33;27.83;;;13.73;;
5285;SDS011;2665;53.112;7.358;2023-01-25T09:07:59;26.83;;;13.47;;
5285;SDS011;2665;53.112;7.358;2023-01-25T09:10:25;30.10;;;14.27;;
5285;SDS011;2665;53.112;7.358;2023-01-25T09:12:52;30.20;;;12.73;;
5285;SDS011;2665;53.112;7.358;2023-01-25T09:15:18;24.70;;;13.03;;
5285;SDS011;2665;53.112;7.358;2023-01-25T09:17:44;31.73;;;13.33;;
5285;SDS011;2665;53.112;7.358;2023-01-25T09:20:10;25.30;;;11.77;;
5285;SDS011;2665;53.112;7.358;2023-01-25T09:22:36;23.13;;;11.93;;
5285;SDS011;2665;53.112;7.358;2023-01-25T09:25:03;23.23;;;11.93;;
5285;SDS011;2665;53.112;7.358;2023-01-25T09:27:29;18.17;;;11.50;;
5285;SDS011;2665;53.112;7.358;2023-01-25T09:29:55;23.03;;;11.77;;
5285;SDS011;2665;53.112;7.358;2023-01-25T09:32:21;23.77;;;12.13;;
5285;SDS011;2665;53.112;7.358;2023-01-25T09:34:47;22.07;;;12.80;;
5285;SDS011;2665;53.112;7.358;2023-01-25T09:37:13;22.30;;;11.23;;
5285;SDS011;2665;53.112;7.358;2023-01-25T09:39:39;23.03;;;11.80;;
5285;SDS011;2665;53.112;7.358;2023-01-25T09:52:53;22.90;;;11.40;;
5285;SDS011;2665;53.112;7.358;2023-01-25T09:55:25;26.10;;;10.90;;
5285;SDS011;2665;53.112;7.358;2023-01-25T09:57:52;25.53;;;12.27;;
5285;SDS011;2665;53.112;7.358;2023-01-25T10:00:26;23.43;;;10.10;;
5285;SDS011;2665;53.112;7.358;2023-01-25T10:05:27;17.80;;;10.80;;
5285;SDS011;2665;53.112;7.358;2023-01-25T10:10:29;22.37;;;10.80;;
5285;SDS011;2665;53.112;7.358;2023-01-25T10:12:57;21.17;;;11.30;;
5285;SDS011;2665;53.112;7.358;2023-01-25T10:15:31;26.70;;;14.00;;
5285;SDS011;2665;53.112;7.358;2023-01-25T10:18:03;25.27;;;12.43;;
5285;SDS011;2665;53.112;7.358;2023-01-25T10:20:51;21.97;;;11.00;;
5285;SDS011;2665;53.112;7.358;2023-01-25T10:28:19;22.40;;;11.90;;
5285;SDS011;2665;53.112;7.358;2023-01-25T10:30:52;22.30;;;11.70;;
5285;SDS011;2665;53.112;7.358;2023-01-25T10:33:19;28.40;;;14.30;;
5285;SDS011;2665;53.112;7.358;2023-01-25T10:35:46;19.67;;;11.10;;
5285;SDS011;2665;53.112;7.358;2023-01-25T10:40:48;19.07;;;8.70;;
5285;SDS011;2665;53.112;7.358;2023-01-25T10:43:17;20.87;;;10.37;;
5285;SDS011;2665;53.112;7.358;2023-01-25T10:45:43;25.83;;;13.53;;
5285;SDS011;2665;53.112;7.358;2023-01-25T10:48:11;22.80;;;12.57;;
5285;SDS011;2665;53.112;7.358;2023-01-25T10:59:04;27.87;;;13.77;;
5285;SDS011;2665;53.112;7.358;2023-01-25T11:01:28;22.67;;;11.73;;
5285;SDS011;2665;53.112;7.358;2023-01-25T11:03:55;21.87;;;12.23;;
5285;SDS011;2665;53.112;7.358;2023-01-25T11:06:54;19.97;;;11.33;;
5285;SDS011;2665;53.112;7.358;2023-01-25T11:11:53;24.13;;;12.70;;
5285;SDS011;2665;53.112;7.358;2023-01-25T11:14:21;21.57;;;11.00;;
5285;SDS011;2665;53.112;7.358;2023-01-25T11:16:47;18.67;;;8.47;;
5285;SDS011;2665;53.112;7.358;2023-01-25T11:21:53;22.77;;;11.47;;
5285;SDS011;2665;53.112;7.358;2023-01-25T11:24:19;21.10;;;11.23;;
5285;SDS011;2665;53.112;7.358;2023-01-25T11:26:45;21.93;;;10.03;;
5285;SDS011;2665;53.112;7.358;2023-01-25T11:29:15;18.57;;;10.10;;
5285;SDS011;2665;53.112;7.358;2023-01-25T11:31:43;18.83;;;10.47;;
5285;SDS011;2665;53.112;7.358;2023-01-25T11:34:13;20.77;;;10.87;;
5285;SDS011;2665;53.112;7.358;2023-01-25T11:36:46;22.93;;;13.00;;
5285;SDS011;2665;53.112;7.358;2023-01-25T11:39:18;22.37;;;10.70;;
5285;SDS011;2665;53.112;7.358;2023-01-25T11:52:36;19.00;;;10.50;;
5285;SDS011;2665;53.112;7.358;2023-01-25T11:57:52;20.80;;;11.77;;
5285;SDS011;2665;53.112;7.358;2023-01-25T12:00:40;23.57;;;11.90;;
5285;SDS011;2665;53.112;7.358;2023-01-25T12:06:15;25.27;;;11.60;;
5285;SDS011;2665;53.112;7.358;2023-01-25T12:12:03;24.73;;;12.00;;
5285;SDS011;2665;53.112;7.358;2023-01-25T12:15:01;24.20;;;11.70;;
5285;SDS011;2665;53.112;7.358;2023-01-25T12:33:03;19.70;;;9.67;;
5285;SDS011;2665;53.112;7.358;2023-01-25T12:43:47;21.37;;;10.30;;
5285;SDS011;2665;53.112;7.358;2023-01-25T12:46:27;22.20;;;10.80;;
5285;SDS011;2665;53.112;7.358;2023-01-25T12:49:00;23.77;;;11.90;;
5285;SDS011;2665;53.112;7.358;2023-01-25T12:51:33;15.27;;;8.37;;
5285;SDS011;2665;53.112;7.358;2023-01-25T12:54:05;17.80;;;8.17;;
5285;SDS011;2665;53.112;7.358;2023-01-25T12:56:42;23.27;;;10.23;;
5285;SDS011;2665;53.112;7.358;2023-01-25T12:59:26;21.50;;;12.13;;
5285;SDS011;2665;53.112;7.358;2023-01-25T13:04:52;23.23;;;11.70;;
5285;SDS011;2665;53.112;7.358;2023-01-25T13:07:55;19.73;;;10.60;;
5285;SDS011;2665;53.112;7.358;2023-01-25T13:11:26;19.77;;;9.13;;
5285;SDS011;2665;53.112;7.358;2023-01-25T13:13:37;18.80;;;10.50;;
5285;SDS011;2665;53.112;7.358;2023-01-25T13:16:23;20.43;;;9.90;;
5285;SDS011;2665;53.112;7.358;2023-01-25T13:18:56;21.93;;;11.00;;
5285;SDS011;2665;53.112;7.358;2023-01-25T13:21:42;21.97;;;11.40;;
5285;SDS011;2665;53.112;7.358;2023-01-25T13:26:38;28.90;;;12.57;;
5285;SDS011;2665;53.112;7.358;2023-01-25T13:32:00;13.90;;;8.20;;
5285;SDS011;2665;53.112;7.358;2023-01-25T13:43:04;19.13;;;8.33;;
5285;SDS011;2665;53.112;7.358;2023-01-25T13:45:37;18.83;;;8.93;;
5285;SDS011;2665;53.112;7.358;2023-01-25T13:48:12;19.70;;;9.87;;
5285;SDS011;2665;53.112;7.358;2023-01-25T13:50:44;18.57;;;9.93;;
5285;SDS011;2665;53.112;7.358;2023-01-25T13:53:17;17.50;;;10.00;;
5285;SDS011;2665;53.112;7.358;2023-01-25T13:55:47;15.03;;;7.00;;
5285;SDS011;2665;53.112;7.358;2023-01-25T14:01:04;24.80;;;10.63;;
5285;SDS011;2665;53.112;7.358;2023-01-25T14:03:40;28.60;;;11.80;;
5285;SDS011;2665;53.112;7.358;2023-01-25T14:06:15;20.73;;;9.33;;
5285;SDS011;2665;53.112;7.358;2023-01-25T14:08:47;20.23;;;8.97;;
5285;SDS011;2665;53.112;7.358;2023-01-25T14:11:20;22.60;;;11.83;;
5285;SDS011;2665;53.112;7.358;2023-01-25T14:13:55;21.33;;;10.60;;
5285;SDS011;2665;53.112;7.358;2023-01-25T14:16:21;16.27;;;8.53;;
5285;SDS011;2665;53.112;7.358;2023-01-25T14:18:46;19.17;;;10.10;;
5285;SDS011;2665;53.112;7.358;2023-01-25T14:21:19;22.20;;;8.97;;
5285;SDS011;2665;53.112;7.358;2023-01-25T14:23:46;21.40;;;9.67;;
5285;SDS011;2665;53.112;7.358;2023-01-25T14:26:15;18.47;;;8.80;;
5285;SDS011;2665;53.112;7.358;2023-01-25T14:28:46;20.13;;;9.07;;
5285;SDS011;2665;53.112;7.358;2023-01-25T14:31:18;21.77;;;11.17;;
5285;SDS011;2665;53.112;7.358;2023-01-25T14:33:49;23.60;;;10.07;;
5285;SDS011;2665;53.112;7.358;2023-01-25T14:36:23;20.37;;;10.60;;
5285;SDS011;2665;53.112;7.358;2023-01-25T14:38:53;19.20;;;9.93;;
5285;SDS011;2665;53.112;7.358;2023-01-25T14:41:30;18.77;;;9.70;;
5285;SDS011;2665;53.112;7.358;2023-01-25T14:44:02;21.77;;;9.17;;
5285;SDS011;2665;53.112;7.358;2023-01-25T14:46:30;17.73;;;8.63;;
5285;SDS011;2665;53.112;7.358;2023-01-25T14:51:58;19.33;;;10.60;;
5285;SDS011;2665;53.112;7.358;2023-01-25T14:54:34;16.60;;;9.23;;
5285;SDS011;2665;53.112;7.358;2023-01-25T14:57:06;20.47;;;9.97;;
5285;SDS011;2665;53.112;7.358;2023-01-25T14:59:52;20.00;;;9.60;;
5285;SDS011;2665;53.112;7.358;2023-01-25T15:05:19;16.63;;;8.20;;
5285;SDS011;2665;53.112;7.358;2023-01-25T15:15:36;24.70;;;11.37;;
5285;SDS011;2665;53.112;7.358;2023-01-25T15:21:06;19.87;;;9.87;;
5285;SDS011;2665;53.112;7.358;2023-01-25T15:23:42;22.27;;;9.87;;
5285;SDS011;2665;53.112;7.358;2023-01-25T15:28:38;18.63;;;8.93;;
5285;SDS011;2665;53.112;7.358;2023-01-25T15:31:03;21.73;;;10.53;;
5285;SDS011;2665;53.112;7.358;2023-01-25T15:33:29;24.80;;;11.17;;
5285;SDS011;2665;53.112;7.358;2023-01-25T15:35:56;29.77;;;12.37;;
5285;SDS011;2665;53.112;7.358;2023-01-25T15:38:23;22.37;;;8.60;;
5285;SDS011;2665;53.112;7.358;2023-01-25T15:40:49;19.37;;;10.20;;
5285;SDS011;2665;53.112;7.358;2023-01-25T15:43:15;19.53;;;10.77;;
5285;SDS011;2665;53.112;7.358;2023-01-25T15:45:43;21.80;;;9.77;;
5285;SDS011;2665;53.112;7.358;2023-01-25T15:48:14;18.77;;;8.70;;
5285;SDS011;2665;53.112;7.358;2023-01-25T15:50:42;20.53;;;9.17;;
5285;SDS011;2665;53.112;7.358;2023-01-25T15:53:12;22.53;;;10.47;;
5285;SDS011;2665;53.112;7.358;2023-01-25T15:55:40;19.70;;;9.47;;
5285;SDS011;2665;53.112;7.358;2023-01-25T15:58:08;16.90;;;9.33;;
5285;SDS011;2665;53.112;7.358;2023-01-25T16:00:40;15.43;;;7.60;;
5285;SDS011;2665;53.112;7.358;2023-01-25T16:03:06;24.60;;;10.17;;
5285;SDS011;2665;53.112;7.358;2023-01-25T16:05:32;18.60;;;9.10;;
5285;SDS011;2665;53.112;7.358;2023-01-25T16:07:57;20.33;;;9.67;;
5285;SDS011;2665;53.112;7.358;2023-01-25T16:10:23;21.53;;;10.20;;
5285;SDS011;2665;53.112;7.358;2023-01-25T16:12:49;25.73;;;10.10;;
5285;SDS011;2665;53.112;7.358;2023-01-25T16:15:15;20.07;;;9.80;;
5285;SDS011;2665;53.112;7.358;2023-01-25T16:17:41;16.00;;;9.07;;
5285;SDS011;2665;53.112;7.358;2023-01-25T16:20:12;22.67;;;9.97;;
5285;SDS011;2665;53.112;7.358;2023-01-25T16:22:41;16.33;;;9.10;;
5285;SDS011;2665;53.112;7.358;2023-01-25T16:25:07;25.17;;;10.90;;
5285;SDS011;2665;53.112;7.358;2023-01-25T16:27:33;24.70;;;11.47;;
5285;SDS011;2665;53.112;7.358;2023-01-25T16:30:00;24.50;;;9.00;;
5285;SDS011;2665;53.112;7.358;2023-01-25T16:32:28;16.73;;;9.20;;
5285;SDS011;2665;53.112;7.358;2023-01-25T16:34:53;23.07;;;9.40;;
5285;SDS011;2665;53.112;7.358;2023-01-25T16:37:19;15.67;;;8.50;;
5285;SDS011;2665;53.112;7.358;2023-01-25T16:39:45;20.03;;;9.30;;
5285;SDS011;2665;53.112;7.358;2023-01-25T16:42:10;19.50;;;8.93;;
5285;SDS011;2665;53.112;7.358;2023-01-25T16:44:36;21.93;;;10.50;;
5285;SDS011;2665;53.112;7.358;2023-01-25T16:47:03;20.37;;;10.17;;
5285;SDS011;2665;53.112;7.358;2023-01-25T16:49:29;24.43;;;10.63;;
5285;SDS011;2665;53.112;7.358;2023-01-25T16:51:55;25.70;;;10.40;;
5285;SDS011;2665;53.112;7.358;2023-01-25T16:54:22;22.93;;;11.07;;
5285;SDS011;2665;53.112;7.358;2023-01-25T16:56:49;18.97;;;9.60;;
5285;SDS011;2665;53.112;7.358;2023-01-25T16:59:17;23.20;;;10.17;;
5285;SDS011;2665;53.112;7.358;2023-01-25T17:01:43;16.23;;;7.80;;
5285;SDS011;2665;53.112;7.358;2023-01-25T17:04:10;24.63;;;9.70;;
5285;SDS011;2665;53.112;7.358;2023-01-25T17:06:37;26.00;;;10.80;;